createdAt,value
2018-12-14T00:02:10.174Z,4.87
2018-12-14T00:04:37.763Z,5.73
2018-12-14T00:07:05.455Z,6.63
2018-12-14T00:09:33.047Z,5.87
2018-12-14T00:12:00.654Z,6.40
2018-12-14T00:14:28.319Z,7.00
2018-12-14T00:16:55.930Z,7.00
2018-12-14T00:19:23.512Z,6.70
2018-12-14T00:21:51.119Z,6.33
2018-12-14T00:24:18.713Z,10.10
2018-12-14T00:26:46.318Z,7.47
2018-12-14T00:29:13.915Z,5.83
2018-12-14T00:31:41.519Z,8.43
2018-12-14T00:34:09.084Z,7.77
2018-12-14T00:36:36.678Z,7.13
2018-12-14T00:39:05.498Z,8.90
2018-12-14T00:41:33.094Z,8.27
2018-12-14T00:44:00.677Z,8.33
2018-12-14T00:46:28.283Z,7.30
2018-12-14T00:48:55.875Z,6.37
2018-12-14T00:51:23.559Z,6.70
2018-12-14T00:53:51.147Z,5.83
2018-12-14T00:56:18.754Z,8.10
2018-12-14T00:58:46.348Z,8.50
2018-12-14T01:01:13.950Z,5.47
2018-12-14T01:03:41.531Z,6.60
2018-12-14T01:06:09.139Z,6.37
2018-12-14T01:08:36.731Z,9.37
2018-12-14T01:11:04.552Z,7.10
2018-12-14T01:13:32.133Z,6.63
2018-12-14T01:15:59.726Z,6.67
2018-12-14T01:18:27.338Z,8.33
2018-12-14T01:20:54.928Z,5.90
2018-12-14T01:23:22.536Z,7.40
2018-12-14T01:25:50.298Z,6.10
2018-12-14T01:28:17.907Z,5.87
2018-12-14T01:30:45.492Z,7.70
2018-12-14T01:33:13.099Z,7.20
2018-12-14T01:35:40.694Z,7.27
2018-12-14T01:38:08.311Z,7.20
2018-12-14T01:40:35.895Z,5.60
2018-12-14T01:43:03.689Z,7.67
2018-12-14T01:45:31.271Z,9.93
2018-12-14T01:47:58.895Z,7.70
2018-12-14T01:50:26.494Z,8.67
2018-12-14T01:52:54.113Z,11.20
2018-12-14T01:55:21.698Z,9.77
2018-12-14T01:57:49.306Z,9.97
2018-12-14T02:00:29.301Z,7.20
2018-12-14T02:02:56.911Z,8.93
2018-12-14T02:05:24.490Z,9.23
2018-12-14T02:07:52.107Z,8.50
2018-12-14T02:10:19.686Z,9.83
2018-12-14T02:12:47.273Z,9.97
2018-12-14T02:15:14.854Z,14.43
2018-12-14T02:17:42.461Z,10.40
2018-12-14T02:20:10.051Z,9.50
2018-12-14T02:22:37.663Z,10.73
2018-12-14T02:25:05.631Z,10.63
2018-12-14T02:27:33.243Z,13.67
2018-12-14T02:32:57.037Z,12.23
2018-12-14T02:35:24.631Z,11.30
2018-12-14T02:37:52.327Z,9.47
2018-12-14T02:40:19.920Z,10.80
2018-12-14T02:42:47.542Z,13.03
2018-12-14T02:45:15.139Z,10.80
2018-12-14T02:47:42.764Z,11.13
2018-12-14T02:50:10.376Z,11.20
2018-12-14T02:52:37.987Z,12.10
2018-12-14T02:55:05.579Z,9.73
2018-12-14T02:57:48.388Z,12.70
2018-12-14T03:00:15.983Z,9.40
2018-12-14T03:02:43.596Z,11.60
2018-12-14T03:05:11.179Z,12.13
2018-12-14T03:07:38.794Z,15.50
2018-12-14T03:10:06.649Z,17.30
2018-12-14T03:12:34.273Z,14.70
2018-12-14T03:15:01.865Z,17.27
2018-12-14T03:17:29.539Z,17.80
2018-12-14T03:19:57.435Z,20.30
2018-12-14T03:22:25.416Z,19.70
2018-12-14T03:24:53.029Z,17.77
2018-12-14T03:27:20.624Z,18.93
2018-12-14T03:29:48.233Z,21.90
2018-12-14T03:32:15.825Z,20.53
2018-12-14T03:34:43.454Z,23.10
2018-12-14T03:37:11.058Z,19.30
2018-12-14T03:39:38.680Z,18.60
2018-12-14T03:42:06.325Z,19.73
2018-12-14T03:44:33.940Z,19.03
2018-12-14T03:47:01.533Z,19.07
2018-12-14T03:49:29.151Z,23.17
2018-12-14T03:51:56.742Z,16.80
2018-12-14T03:54:24.361Z,16.97
2018-12-14T03:56:51.951Z,13.17
2018-12-14T03:59:19.566Z,14.03
2018-12-14T04:01:47.159Z,15.57
2018-12-14T04:04:14.776Z,16.53
2018-12-14T04:06:42.364Z,16.80
2018-12-14T04:09:09.979Z,11.43
2018-12-14T04:11:37.568Z,15.87
2018-12-14T04:14:05.177Z,13.13
2018-12-14T04:16:32.771Z,11.23
2018-12-14T04:19:00.392Z,14.57
2018-12-14T04:21:27.984Z,12.83
2018-12-14T04:23:55.675Z,11.73
2018-12-14T04:26:23.267Z,14.10
2018-12-14T04:28:50.883Z,16.17
2018-12-14T04:31:18.476Z,10.87
2018-12-14T04:33:46.104Z,12.13
2018-12-14T04:36:13.695Z,13.17
2018-12-14T04:38:41.307Z,10.80
2018-12-14T04:41:08.901Z,12.50
2018-12-14T04:43:36.515Z,14.33
2018-12-14T04:46:04.185Z,11.50
2018-12-14T04:48:31.803Z,11.00
2018-12-14T04:50:59.405Z,12.30
2018-12-14T04:53:27.014Z,10.63
2018-12-14T04:55:55.186Z,12.03
2018-12-14T04:58:22.820Z,15.10
2018-12-14T05:00:50.411Z,12.67
2018-12-14T05:03:17.998Z,11.50
2018-12-14T05:05:45.605Z,13.30
2018-12-14T05:08:13.197Z,11.87
2018-12-14T05:10:40.813Z,13.50
2018-12-14T05:13:08.403Z,11.87
2018-12-14T05:15:36.017Z,12.77
2018-12-14T05:18:03.611Z,15.60
2018-12-14T05:20:31.227Z,12.57
2018-12-14T05:22:58.818Z,12.60
2018-12-14T05:25:26.429Z,13.60
2018-12-14T05:27:54.018Z,11.83
2018-12-14T05:30:21.811Z,12.27
2018-12-14T05:32:49.403Z,13.57
2018-12-14T05:35:17.034Z,14.03
2018-12-14T05:37:44.625Z,13.87
2018-12-14T05:40:12.244Z,12.80
2018-12-14T05:42:39.834Z,12.83
2018-12-14T05:45:07.452Z,12.30
2018-12-14T05:47:35.051Z,13.37
2018-12-14T05:50:02.666Z,13.70
2018-12-14T05:52:30.264Z,12.87
2018-12-14T05:54:57.897Z,10.67
2018-12-14T05:57:25.498Z,11.00
2018-12-14T05:59:53.110Z,10.60
2018-12-14T06:02:20.783Z,13.97
2018-12-14T06:04:48.395Z,11.90
2018-12-14T06:07:15.991Z,14.70
2018-12-14T06:09:43.616Z,12.60
2018-12-14T06:12:11.406Z,10.67
2018-12-14T06:14:39.094Z,12.50
2018-12-14T06:17:06.691Z,11.70
2018-12-14T06:19:34.302Z,9.53
2018-12-14T06:22:01.899Z,12.87
2018-12-14T06:24:29.511Z,10.60
2018-12-14T06:26:57.098Z,12.47
2018-12-14T06:29:24.716Z,10.80
2018-12-14T06:31:52.302Z,10.90
2018-12-14T06:34:19.893Z,9.70
2018-12-14T06:36:47.507Z,10.23
2018-12-14T06:39:15.538Z,12.30
2018-12-14T06:41:43.436Z,12.47
2018-12-14T06:44:11.026Z,11.17
2018-12-14T06:46:38.635Z,9.10
2018-12-14T06:49:06.220Z,9.23
2018-12-14T06:51:33.828Z,9.90
2018-12-14T06:54:01.414Z,10.83
2018-12-14T06:56:29.023Z,9.20
2018-12-14T06:58:56.608Z,8.03
2018-12-14T07:01:24.215Z,7.20
2018-12-14T07:03:51.795Z,7.30
2018-12-14T07:06:19.404Z,8.57
2018-12-14T07:08:46.986Z,7.90
2018-12-14T07:11:14.591Z,8.63
2018-12-14T07:13:42.171Z,8.33
2018-12-14T07:16:09.773Z,8.47
2018-12-14T07:18:37.355Z,9.27
2018-12-14T07:21:04.958Z,7.70
2018-12-14T07:23:32.543Z,7.87
2018-12-14T07:26:00.138Z,7.73
2018-12-14T07:28:27.727Z,7.03
2018-12-14T07:30:55.912Z,8.27
2018-12-14T07:33:23.493Z,8.30
2018-12-14T07:35:51.099Z,8.50
2018-12-14T07:38:18.683Z,9.97
2018-12-14T07:40:46.290Z,11.00
2018-12-14T07:43:13.876Z,7.90
2018-12-14T07:45:41.492Z,7.57
2018-12-14T07:48:09.085Z,8.60
2018-12-14T07:50:36.700Z,9.00
2018-12-14T07:53:09.161Z,6.83
2018-12-14T07:55:34.226Z,9.20
2018-12-14T07:58:01.834Z,10.63
2018-12-14T08:00:29.442Z,7.63
2018-12-14T08:02:57.024Z,7.20
2018-12-14T08:05:24.639Z,9.83
2018-12-14T08:07:52.235Z,9.30
2018-12-14T08:10:19.931Z,9.87
2018-12-14T08:12:47.519Z,8.53
2018-12-14T08:15:15.507Z,9.67
2018-12-14T08:17:43.094Z,8.57
2018-12-14T08:20:16.943Z,9.40
2018-12-14T08:22:40.337Z,7.80
2018-12-14T08:25:08.016Z,9.40
2018-12-14T08:27:35.595Z,7.23
2018-12-14T08:30:03.365Z,8.73
2018-12-14T08:32:37.403Z,9.77
2018-12-14T08:35:06.147Z,9.70
2018-12-14T08:37:33.751Z,9.20
2018-12-14T08:40:01.335Z,9.10
2018-12-14T08:42:28.944Z,11.70
2018-12-14T08:44:57.637Z,11.67
2018-12-14T08:47:26.150Z,9.40
2018-12-14T08:49:53.867Z,9.80
2018-12-14T08:52:21.475Z,7.03
2018-12-14T08:54:49.061Z,9.83
2018-12-14T08:57:16.663Z,8.40
2018-12-14T08:59:44.243Z,10.30
2018-12-14T09:02:11.864Z,8.63
2018-12-14T09:04:39.451Z,8.70
2018-12-14T09:07:07.063Z,10.47
2018-12-14T09:09:34.652Z,8.90
2018-12-14T09:12:02.266Z,10.17
2018-12-14T09:14:29.859Z,8.97
2018-12-14T09:16:57.515Z,10.70
2018-12-14T09:19:25.096Z,9.00
2018-12-14T09:21:52.703Z,10.00
2018-12-14T09:24:20.292Z,8.27
2018-12-14T09:26:59.214Z,8.57
2018-12-14T09:29:26.811Z,9.83
2018-12-14T09:31:54.516Z,11.00
2018-12-14T09:34:22.105Z,9.70
2018-12-14T09:36:49.695Z,8.80
2018-12-14T09:39:17.311Z,9.60
2018-12-14T09:41:44.907Z,10.03
2018-12-14T09:44:12.530Z,11.60
2018-12-14T09:46:40.119Z,8.03
2018-12-14T09:49:07.737Z,10.50
2018-12-14T09:51:35.327Z,10.10
2018-12-14T09:54:02.939Z,9.60
2018-12-14T09:56:30.546Z,11.43
2018-12-14T09:58:58.154Z,16.70
2018-12-14T10:01:25.745Z,8.57
2018-12-14T10:03:53.547Z,10.43
2018-12-14T10:06:21.134Z,9.70
2018-12-14T10:08:51.688Z,8.83
2018-12-14T10:11:19.352Z,11.40
2018-12-14T10:13:46.958Z,9.93
2018-12-14T10:16:14.719Z,10.80
2018-12-14T10:18:42.895Z,8.53
2018-12-14T10:21:10.489Z,11.37
2018-12-14T10:23:38.093Z,10.77
2018-12-14T10:26:05.678Z,10.83
2018-12-14T10:28:33.282Z,9.40
2018-12-14T10:31:00.858Z,9.27
2018-12-14T10:33:28.468Z,12.40
2018-12-14T10:35:56.055Z,10.30
2018-12-14T10:38:23.694Z,9.77
2018-12-14T10:40:51.283Z,8.20
2018-12-14T10:43:18.868Z,8.87
2018-12-14T10:45:46.749Z,9.83
2018-12-14T10:48:14.337Z,8.77
2018-12-14T10:50:41.952Z,9.73
2018-12-14T10:53:11.542Z,10.50
2018-12-14T10:55:39.157Z,12.70
2018-12-14T10:58:06.934Z,10.70
2018-12-14T11:00:40.224Z,10.60
2018-12-14T11:03:07.818Z,10.33
2018-12-14T11:05:35.428Z,11.50
2018-12-14T11:08:03.017Z,11.37
2018-12-14T11:10:30.709Z,11.13
2018-12-14T11:12:58.301Z,12.53
2018-12-14T11:15:25.906Z,10.60
2018-12-14T11:17:53.503Z,10.37
2018-12-14T11:20:21.115Z,11.47
2018-12-14T11:22:48.698Z,11.13
2018-12-14T11:25:16.327Z,12.30
2018-12-14T11:27:43.908Z,11.33
2018-12-14T11:30:11.712Z,10.93
2018-12-14T11:32:39.302Z,11.13
2018-12-14T11:35:06.902Z,10.10
2018-12-14T11:37:34.489Z,10.60
2018-12-14T11:40:02.094Z,11.60
2018-12-14T11:42:29.679Z,13.13
2018-12-14T11:44:57.271Z,12.70
2018-12-14T11:47:24.882Z,11.47
2018-12-14T11:49:52.467Z,12.97
2018-12-14T11:52:20.075Z,12.80
2018-12-14T11:54:47.672Z,15.10
2018-12-14T11:57:15.283Z,14.97
2018-12-14T11:59:42.871Z,13.17
2018-12-14T12:02:10.482Z,14.80
2018-12-14T12:04:38.062Z,14.87
2018-12-14T12:07:05.699Z,15.70
2018-12-14T12:09:33.465Z,15.90
2018-12-14T12:12:01.150Z,14.30
2018-12-14T12:14:28.739Z,14.00
2018-12-14T12:16:56.350Z,15.97
2018-12-14T12:19:23.944Z,18.57
2018-12-14T12:21:51.631Z,16.23
2018-12-14T12:24:19.228Z,18.13
2018-12-14T12:26:46.843Z,19.23
2018-12-14T12:29:14.435Z,15.83
2018-12-14T12:34:34.537Z,18.73
2018-12-14T12:37:02.144Z,19.40
2018-12-14T12:39:29.736Z,17.40
2018-12-14T12:41:57.351Z,17.80
2018-12-14T12:44:24.936Z,18.47
2018-12-14T12:46:52.554Z,17.63
2018-12-14T12:49:20.142Z,21.00
2018-12-14T12:51:47.843Z,19.50
2018-12-14T12:54:15.559Z,19.90
2018-12-14T12:56:43.252Z,21.83
2018-12-14T12:59:10.841Z,17.50
2018-12-14T13:01:38.453Z,18.03
2018-12-14T13:04:06.038Z,20.67
2018-12-14T13:06:33.648Z,19.27
2018-12-14T13:09:01.330Z,19.50
2018-12-14T13:11:28.951Z,18.30
2018-12-14T13:13:56.532Z,20.17
2018-12-14T13:16:24.126Z,20.30
2018-12-14T13:18:51.741Z,19.40
2018-12-14T13:21:19.333Z,18.90
2018-12-14T13:23:46.954Z,21.67
2018-12-14T13:26:14.545Z,18.10
2018-12-14T13:28:42.246Z,20.50
2018-12-14T13:31:09.832Z,22.07
2018-12-14T13:33:38.015Z,18.20
2018-12-14T13:36:05.609Z,17.43
2018-12-14T13:38:33.227Z,21.40
2018-12-14T13:41:00.824Z,22.00
2018-12-14T13:43:28.440Z,23.53
2018-12-14T13:45:56.032Z,20.10
2018-12-14T13:48:23.651Z,22.53
2018-12-14T13:50:51.323Z,20.50
2018-12-14T13:53:18.945Z,22.80
2018-12-14T13:55:46.535Z,25.80
2018-12-14T13:58:14.146Z,24.63
2018-12-14T14:00:41.748Z,22.80
2018-12-14T14:03:10.336Z,23.40
2018-12-14T14:05:38.098Z,24.00
2018-12-14T14:08:05.710Z,24.57
2018-12-14T14:10:33.299Z,25.80
2018-12-14T14:13:00.916Z,26.53
2018-12-14T14:15:28.508Z,25.60
2018-12-14T14:17:56.124Z,24.90
2018-12-14T14:20:23.714Z,27.47
2018-12-14T14:22:51.343Z,28.33
2018-12-14T14:25:18.949Z,28.40
2018-12-14T14:27:46.548Z,28.70
2018-12-14T14:30:14.163Z,28.43
2018-12-14T14:32:41.755Z,25.40
2018-12-14T14:35:09.375Z,29.80
2018-12-14T14:37:36.972Z,31.50
2018-12-14T14:40:05.365Z,30.93
2018-12-14T14:42:32.957Z,30.47
2018-12-14T14:45:00.572Z,32.00
2018-12-14T14:47:28.164Z,30.93
2018-12-14T14:49:55.774Z,30.10
2018-12-14T14:52:23.358Z,29.43
2018-12-14T14:54:51.294Z,27.73
2018-12-14T14:57:18.983Z,27.93
2018-12-14T14:59:46.590Z,31.33
2018-12-14T15:02:14.187Z,30.33
2018-12-14T15:04:41.808Z,32.30
2018-12-14T15:07:09.403Z,26.93
2018-12-14T15:09:37.035Z,27.47
2018-12-14T15:12:04.628Z,39.23
2018-12-14T15:14:32.247Z,32.40
2018-12-14T15:16:59.845Z,32.37
2018-12-14T15:19:27.458Z,32.37
2018-12-14T15:21:55.055Z,30.40
2018-12-14T15:24:22.674Z,30.50
2018-12-14T15:26:50.263Z,38.03
2018-12-14T15:29:17.894Z,32.80
2018-12-14T15:31:45.975Z,32.03
2018-12-14T15:34:14.506Z,32.53
2018-12-14T15:36:42.416Z,30.57
2018-12-14T15:39:10.012Z,31.23
2018-12-14T15:41:37.628Z,33.77
2018-12-14T15:44:05.220Z,29.60
2018-12-14T15:46:32.844Z,32.50
2018-12-14T15:49:00.440Z,31.67
2018-12-14T15:51:28.058Z,34.50
2018-12-14T15:53:55.646Z,29.40
2018-12-14T15:56:23.271Z,26.57
2018-12-14T15:58:50.865Z,29.33
2018-12-14T16:01:18.479Z,30.93
2018-12-14T16:03:46.074Z,29.50
2018-12-14T16:06:13.687Z,29.50
2018-12-14T16:08:41.362Z,31.30
2018-12-14T16:11:08.984Z,27.77
2018-12-14T16:13:36.580Z,28.70
2018-12-14T16:16:04.225Z,29.47
2018-12-14T16:18:31.822Z,26.40
2018-12-14T16:20:59.454Z,25.77
2018-12-14T16:23:27.060Z,27.70
2018-12-14T16:25:54.697Z,25.10
2018-12-14T16:28:22.288Z,26.87
2018-12-14T16:30:49.907Z,27.63
2018-12-14T16:33:17.507Z,26.33
2018-12-14T16:35:45.111Z,30.07
2018-12-14T16:38:12.727Z,25.93
2018-12-14T16:40:40.325Z,24.27
2018-12-14T16:43:07.940Z,25.60
2018-12-14T16:45:35.538Z,25.33
2018-12-14T16:48:03.156Z,23.77
2018-12-14T16:50:30.832Z,24.17
2018-12-14T16:52:58.452Z,23.90
2018-12-14T16:55:26.055Z,24.00
2018-12-14T16:57:53.752Z,20.50
2018-12-14T17:00:21.342Z,23.13
2018-12-14T17:02:48.955Z,21.07
2018-12-14T17:05:16.552Z,22.90
2018-12-14T17:07:44.172Z,21.80
2018-12-14T17:10:11.764Z,19.60
2018-12-14T17:12:39.384Z,20.40
2018-12-14T17:15:07.251Z,22.93
2018-12-14T17:17:34.872Z,20.70
2018-12-14T17:20:02.468Z,24.33
2018-12-14T17:22:30.079Z,19.73
2018-12-14T17:24:57.675Z,22.80
2018-12-14T17:27:25.290Z,19.30
2018-12-14T17:29:52.893Z,21.27
2018-12-14T17:32:20.523Z,22.67
2018-12-14T17:34:48.200Z,21.53
2018-12-14T17:37:15.823Z,17.07
2018-12-14T17:39:43.425Z,21.63
2018-12-14T17:42:11.019Z,19.17
2018-12-14T17:44:38.634Z,17.73
2018-12-14T17:47:06.242Z,16.60
2018-12-14T17:49:33.863Z,23.07
2018-12-14T17:52:01.456Z,19.70
2018-12-14T17:54:29.076Z,20.93
2018-12-14T17:56:56.676Z,22.37
2018-12-14T17:59:24.293Z,18.83
2018-12-14T18:01:51.977Z,20.10
2018-12-14T18:04:19.592Z,16.30
2018-12-14T18:06:47.182Z,19.30
2018-12-14T18:09:14.802Z,19.40
2018-12-14T18:11:42.401Z,18.47
2018-12-14T18:14:10.019Z,19.30
2018-12-14T18:16:37.998Z,19.10
2018-12-14T18:19:05.804Z,21.40
2018-12-14T18:21:33.402Z,15.50
2018-12-14T18:24:01.018Z,18.97
2018-12-14T18:26:28.610Z,19.70
2018-12-14T18:28:56.227Z,16.23
2018-12-14T18:31:23.822Z,17.23
2018-12-14T18:33:51.431Z,17.67
2018-12-14T18:36:19.023Z,18.17
2018-12-14T18:38:46.644Z,19.33
2018-12-14T18:41:14.235Z,18.37
2018-12-14T18:43:41.851Z,16.83
2018-12-14T18:46:09.454Z,17.00
2018-12-14T18:48:37.071Z,16.60
2018-12-14T18:51:04.674Z,16.50
2018-12-14T18:53:32.269Z,17.53
2018-12-14T18:55:59.892Z,17.60
2018-12-14T18:58:27.487Z,16.27
2018-12-14T19:00:55.100Z,17.93
2018-12-14T19:03:22.699Z,17.60
2018-12-14T19:05:50.311Z,15.13
2018-12-14T19:08:17.904Z,15.17
2018-12-14T19:10:45.518Z,16.43
2018-12-14T19:13:13.117Z,13.20
2018-12-14T19:15:40.736Z,16.47
2018-12-14T19:18:08.333Z,18.83
2018-12-14T19:20:35.949Z,14.97
2018-12-14T19:23:03.540Z,16.63
2018-12-14T19:25:31.156Z,13.57
2018-12-14T19:27:58.755Z,17.20
2018-12-14T19:30:26.371Z,14.10
2018-12-14T19:32:53.969Z,15.93
2018-12-14T19:35:21.569Z,13.90
2018-12-14T19:37:49.182Z,15.17
2018-12-14T19:40:16.851Z,14.57
2018-12-14T19:42:44.552Z,15.37
2018-12-14T19:45:12.224Z,14.90
2018-12-14T19:47:39.840Z,13.47
2018-12-14T19:50:08.583Z,14.40
2018-12-14T19:52:36.326Z,14.73
2018-12-14T19:55:05.797Z,11.30
2018-12-14T19:57:33.411Z,12.47
2018-12-14T20:00:01.006Z,12.43
2018-12-14T20:02:28.623Z,17.30
2018-12-14T20:04:56.215Z,15.73
2018-12-14T20:07:23.828Z,13.80
2018-12-14T20:09:51.415Z,12.80
2018-12-14T20:12:19.026Z,14.73
2018-12-14T20:14:46.617Z,12.97
2018-12-14T20:17:14.227Z,13.63
2018-12-14T20:19:41.818Z,14.90
2018-12-14T20:22:09.427Z,15.43
2018-12-14T20:24:37.014Z,16.77
2018-12-14T20:27:04.713Z,15.97
2018-12-14T20:29:32.304Z,13.50
2018-12-14T20:31:59.919Z,14.23
2018-12-14T20:34:27.514Z,17.00
2018-12-14T20:36:55.135Z,14.93
2018-12-14T20:39:22.729Z,14.10
2018-12-14T20:41:50.347Z,16.13
2018-12-14T20:44:17.938Z,13.30
2018-12-14T20:46:45.609Z,13.70
2018-12-14T20:49:13.202Z,14.90
2018-12-14T20:51:40.795Z,16.87
2018-12-14T20:54:08.417Z,16.33
2018-12-14T20:56:36.014Z,12.43
2018-12-14T20:59:03.624Z,16.77
2018-12-14T21:01:33.523Z,15.37
2018-12-14T21:04:01.142Z,16.20
2018-12-14T21:06:28.735Z,16.90
2018-12-14T21:08:56.342Z,16.10
2018-12-14T21:11:23.934Z,15.13
2018-12-14T21:13:51.552Z,14.17
2018-12-14T21:16:25.637Z,14.17
2018-12-14T21:18:48.804Z,17.20
2018-12-14T21:21:16.393Z,16.10
2018-12-14T21:23:44.003Z,15.60
2018-12-14T21:26:11.590Z,14.73
2018-12-14T21:28:39.207Z,14.87
2018-12-14T21:31:06.802Z,15.27
2018-12-14T21:33:34.421Z,13.87
2018-12-14T21:36:02.011Z,16.90
2018-12-14T21:38:29.634Z,15.50
2018-12-14T21:40:57.223Z,14.13
2018-12-14T21:43:24.856Z,15.90
2018-12-14T21:45:52.459Z,16.27
2018-12-14T21:48:20.054Z,15.33
2018-12-14T21:50:47.668Z,16.17
2018-12-14T21:53:15.262Z,15.00
2018-12-14T21:55:42.878Z,15.10
2018-12-14T21:58:10.662Z,14.60
2018-12-14T22:00:38.279Z,14.77
2018-12-14T22:03:05.872Z,15.30
2018-12-14T22:05:33.495Z,15.57
2018-12-14T22:08:01.110Z,14.97
2018-12-14T22:10:28.719Z,16.67
2018-12-14T22:12:56.314Z,16.57
2018-12-14T22:15:23.937Z,14.20
2018-12-14T22:17:51.527Z,15.03
2018-12-14T22:20:19.139Z,17.30
2018-12-14T22:22:46.739Z,17.43
2018-12-14T22:25:14.352Z,13.00
2018-12-14T22:27:41.950Z,14.77
2018-12-14T22:30:09.639Z,16.87
2018-12-14T22:32:37.226Z,12.27
2018-12-14T22:35:04.925Z,18.90
2018-12-14T22:37:32.512Z,14.37
2018-12-14T22:40:00.129Z,16.43
2018-12-14T22:42:27.732Z,15.90
2018-12-14T22:44:55.346Z,15.73
2018-12-14T22:47:22.946Z,14.50
2018-12-14T22:49:50.560Z,13.87
2018-12-14T22:52:18.151Z,14.00
2018-12-14T22:54:45.768Z,14.70
2018-12-14T22:57:13.361Z,15.47
2018-12-14T22:59:40.975Z,14.27
2018-12-14T23:02:08.574Z,14.50
2018-12-14T23:04:36.186Z,13.43
2018-12-14T23:07:03.776Z,13.90
2018-12-14T23:09:31.394Z,14.97
2018-12-14T23:11:58.987Z,14.83
2018-12-14T23:14:26.602Z,14.83
2018-12-14T23:16:54.200Z,14.97
2018-12-14T23:19:21.819Z,13.30
2018-12-14T23:21:49.421Z,14.53
2018-12-14T23:24:17.045Z,14.80
2018-12-14T23:26:44.649Z,17.33
2018-12-14T23:29:12.238Z,15.10
2018-12-14T23:31:39.966Z,15.63
2018-12-14T23:34:07.588Z,16.10
2018-12-14T23:36:35.215Z,13.50
2018-12-14T23:39:03.496Z,14.60
2018-12-14T23:41:31.111Z,16.70
2018-12-14T23:43:58.698Z,14.07
2018-12-14T23:46:26.310Z,15.53
2018-12-14T23:48:53.902Z,16.03
2018-12-14T23:51:21.514Z,14.60
2018-12-14T23:53:49.111Z,16.30
2018-12-14T23:56:16.743Z,19.20
2018-12-14T23:58:44.339Z,15.73
